Time;durP1;ratioP1;P1;durP2;ratioP2;P2;SDS_P1;SDS_P2;PMS_P1;PMS_P2;Temp;Humidity;BMP_temperature;BMP_pressure;BME280_temperature;BME280_humidity;BME280_pressure;Samples;Min_cycle;Max_cycle;Signal;HPM_P1;HPM_P2
2022/09/07 00:01:25;;;;;;;;;;;17.60;99.90;;;;;;5058910;28;19931;-76
2022/09/07 00:03:56;;;;;;;;;;;17.40;99.90;;;;;;5051823;28;19909;-76
2022/09/07 00:06:22;;;;;;;;;;;17.30;99.90;;;;;;5057296;28;19908;-76
2022/09/07 00:08:47;;;;;;;;;;;17.20;99.90;;;;;;5050722;28;19909;-76
2022/09/07 00:11:15;;;;;;;;;;;17.10;99.90;;;;;;5051665;28;19924;-76
2022/09/07 00:13:41;;;;;;;;;;;17.00;99.90;;;;;;5055905;28;19966;-77
2022/09/07 00:16:13;;;;;;;;;;;16.90;99.90;;;;;;5057528;28;20234;-77
2022/09/07 00:18:39;;;;;;;;;;;16.80;99.90;;;;;;5052311;28;19913;-76
2022/09/07 00:21:06;;;;;;;;;;;17.00;99.90;;;;;;5051687;28;19909;-76
2022/09/07 00:23:32;;;;;;;;;;;16.90;99.90;;;;;;5057022;28;19948;-76
2022/09/07 00:25:59;;;;;;;;;;;16.90;99.90;;;;;;5070902;28;20448;-76
2022/09/07 00:28:24;;;;;;;;;;;16.80;99.90;;;;;;5071104;28;19909;-77
2022/09/07 00:30:50;;;;;;;;;;;16.80;99.90;;;;;;5069570;28;19989;-76
2022/09/07 00:33:15;;;;;;;;;;;16.90;99.90;;;;;;5065730;28;19920;-75
2022/09/07 00:35:41;;;;;;;;;;;17.00;99.90;;;;;;5051474;28;19960;-77
2022/09/07 00:38:07;;;;;;;;;;;17.10;99.90;;;;;;5050399;28;20011;-76
2022/09/07 00:40:33;;;;;;;;;;;17.00;99.90;;;;;;5051413;28;20328;-76
2022/09/07 00:42:58;;;;;;;;;;;16.80;99.90;;;;;;5056119;28;20307;-76
2022/09/07 00:45:24;;;;;;;;;;;16.70;99.90;;;;;;5059369;28;20043;-76
2022/09/07 00:47:58;;;;;;;;;;;16.70;99.90;;;;;;5051456;28;19913;-76
2022/09/07 00:50:38;;;;;;;;;;;16.60;99.90;;;;;;5051623;28;19998;-76
2022/09/07 00:53:05;;;;;;;;;;;16.60;99.90;;;;;;5051343;28;20011;-77
2022/09/07 00:55:31;;;;;;;;;;;16.60;99.90;;;;;;5051605;28;19938;-77
2022/09/07 00:57:57;;;;;;;;;;;16.50;99.90;;;;;;5060761;28;20256;-77
2022/09/07 01:00:23;;;;;;;;;;;16.50;99.90;;;;;;5074321;28;20314;-77
2022/09/07 01:02:49;;;;;;;;;;;16.40;99.90;;;;;;5074608;28;19993;-76
2022/09/07 01:05:28;;;;;;;;;;;16.10;99.90;;;;;;5074489;28;20353;-76
2022/09/07 01:07:55;;;;;;;;;;;16.00;99.90;;;;;;5068476;28;20269;-76
2022/09/07 01:10:23;;;;;;;;;;;16.00;99.90;;;;;;5055363;28;19923;-76
2022/09/07 01:12:49;;;;;;;;;;;16.10;99.90;;;;;;5055173;28;20024;-76
2022/09/07 01:15:15;;;;;;;;;;;16.10;99.90;;;;;;5078556;28;19999;-76
2022/09/07 01:17:40;;;;;;;;;;;16.00;99.90;;;;;;5065280;28;20361;-76
2022/09/07 01:20:12;;;;;;;;;;;15.90;99.90;;;;;;5074573;28;19916;-76
2022/09/07 01:22:40;;;;;;;;;;;15.90;99.90;;;;;;5074359;28;19915;-76
2022/09/07 01:25:17;;;;;;;;;;;15.90;99.90;;;;;;5074457;28;19908;-76
2022/09/07 01:27:55;;;;;;;;;;;15.80;99.90;;;;;;5059675;28;19917;-76
2022/09/07 01:30:22;;;;;;;;;;;15.80;99.90;;;;;;5054639;28;19909;-76
2022/09/07 01:32:55;;;;;;;;;;;16.00;99.90;;;;;;5054702;28;19917;-76
2022/09/07 01:35:25;;;;;;;;;;;16.00;99.90;;;;;;5053706;28;19912;-75
2022/09/07 01:37:58;;;;;;;;;;;16.00;99.90;;;;;;5054805;28;19948;-76
2022/09/07 01:40:32;;;;;;;;;;;15.90;99.90;;;;;;5058180;28;20203;-75
2022/09/07 01:43:03;;;;;;;;;;;16.00;99.90;;;;;;5072807;28;20007;-75
2022/09/07 01:45:31;;;;;;;;;;;16.10;99.90;;;;;;5064194;28;19909;-78
2022/09/07 01:47:59;;;;;;;;;;;16.00;99.90;;;;;;5067437;28;19915;-76
2022/09/07 01:50:47;;;;;;;;;;;15.90;99.90;;;;;;5061541;28;19962;-76
2022/09/07 01:53:24;;;;;;;;;;;15.90;99.90;;;;;;5069593;28;20361;-77
2022/09/07 01:55:50;;;;;;;;;;;15.80;99.90;;;;;;5072408;28;19957;-76
2022/09/07 01:58:18;;;;;;;;;;;15.80;99.90;;;;;;5070099;28;20418;-76
2022/09/07 02:00:45;;;;;;;;;;;16.00;99.90;;;;;;5054530;28;19909;-76
2022/09/07 02:03:18;;;;;;;;;;;16.20;99.90;;;;;;5052953;28;20282;-78
2022/09/07 02:05:48;;;;;;;;;;;16.20;99.90;;;;;;5066156;28;19916;-77
2022/09/07 02:08:43;;;;;;;;;;;16.20;99.90;;;;;;5072461;28;19908;-76
2022/09/07 02:11:11;;;;;;;;;;;16.30;99.90;;;;;;5073158;28;20337;-76
2022/09/07 02:13:41;;;;;;;;;;;16.40;99.90;;;;;;5070649;28;19912;-77
2022/09/07 02:16:10;;;;;;;;;;;16.50;99.90;;;;;;5057602;28;19909;-76
2022/09/07 02:18:55;;;;;;;;;;;16.60;99.90;;;;;;5054268;28;20407;-77
2022/09/07 02:21:23;;;;;;;;;;;16.60;99.90;;;;;;5059083;28;20267;-77
2022/09/07 02:23:50;;;;;;;;;;;16.80;99.90;;;;;;5073471;28;19919;-76
2022/09/07 02:26:18;;;;;;;;;;;17.10;99.90;;;;;;5073124;28;19912;-76
2022/09/07 02:28:44;;;;;;;;;;;17.30;99.90;;;;;;5073114;28;19916;-77
2022/09/07 02:31:10;;;;;;;;;;;17.50;99.90;;;;;;5072925;28;19912;-77
2022/09/07 02:33:35;;;;;;;;;;;17.60;99.90;;;;;;5072559;28;19966;-77
2022/09/07 02:36:03;;;;;;;;;;;17.70;99.90;;;;;;5072788;28;20277;-76
2022/09/07 02:38:29;;;;;;;;;;;17.80;99.90;;;;;;5072805;28;19978;-76
2022/09/07 02:40:56;;;;;;;;;;;17.80;99.90;;;;;;5073075;28;20353;-77
2022/09/07 02:43:22;;;;;;;;;;;17.90;99.90;;;;;;5067557;28;20003;-76
2022/09/07 02:45:47;;;;;;;;;;;17.80;99.90;;;;;;5063097;28;19909;-76
2022/09/07 02:48:31;;;;;;;;;;;17.90;99.90;;;;;;5056093;28;19915;-77
2022/09/07 02:51:07;;;;;;;;;;;17.90;99.90;;;;;;5053354;28;20374;-77
2022/09/07 02:53:36;;;;;;;;;;;18.10;99.90;;;;;;5051910;28;19916;-77
2022/09/07 02:56:10;;;;;;;;;;;18.00;99.90;;;;;;5053601;28;20325;-76
2022/09/07 02:58:49;;;;;;;;;;;18.10;99.90;;;;;;5053492;28;19909;-77
2022/09/07 03:01:33;;;;;;;;;;;18.10;99.90;;;;;;5062914;28;19995;-77
2022/09/07 03:03:59;;;;;;;;;;;18.10;99.90;;;;;;5072297;28;20357;-77
2022/09/07 03:06:27;;;;;;;;;;;18.10;99.90;;;;;;5072692;28;19908;-76
2022/09/07 03:08:54;;;;;;;;;;;18.10;99.90;;;;;;5072575;28;19951;-76
2022/09/07 03:11:20;;;;;;;;;;;18.10;99.90;;;;;;5071978;28;19983;-76
2022/09/07 03:13:45;;;;;;;;;;;18.10;99.90;;;;;;5072356;28;19963;-76
2022/09/07 03:16:12;;;;;;;;;;;18.00;99.90;;;;;;5061355;28;19909;-77
2022/09/07 03:18:37;;;;;;;;;;;17.90;99.90;;;;;;5054816;28;19908;-76
2022/09/07 03:21:03;;;;;;;;;;;17.80;99.90;;;;;;5052474;28;20289;-77
2022/09/07 03:23:28;;;;;;;;;;;17.70;99.90;;;;;;5052616;28;19915;-76
2022/09/07 03:25:54;;;;;;;;;;;17.80;99.90;;;;;;5052908;28;19979;-76
2022/09/07 03:28:19;;;;;;;;;;;17.80;99.90;;;;;;5059855;28;19912;-76
2022/09/07 03:30:46;;;;;;;;;;;17.80;99.90;;;;;;5059697;28;19909;-76
2022/09/07 03:33:14;;;;;;;;;;;17.70;99.90;;;;;;5052305;28;19966;-76
2022/09/07 03:35:41;;;;;;;;;;;17.50;99.90;;;;;;5064519;28;19912;-76
2022/09/07 03:38:07;;;;;;;;;;;17.30;99.90;;;;;;5052644;28;19974;-76
2022/09/07 03:40:32;;;;;;;;;;;17.00;99.90;;;;;;5059866;28;20354;-76
2022/09/07 03:42:58;;;;;;;;;;;17.00;99.90;;;;;;5056908;28;19908;-76
2022/09/07 03:45:23;;;;;;;;;;;16.90;99.90;;;;;;5071198;28;19939;-78
2022/09/07 03:47:49;;;;;;;;;;;16.80;99.90;;;;;;5052506;28;19913;-76
2022/09/07 03:50:15;;;;;;;;;;;16.80;99.90;;;;;;5052544;28;19909;-76
2022/09/07 03:52:41;;;;;;;;;;;16.70;99.90;;;;;;5052231;28;20259;-76
2022/09/07 03:55:06;;;;;;;;;;;16.80;99.90;;;;;;5052187;28;19948;-77
2022/09/07 03:57:32;;;;;;;;;;;16.70;99.90;;;;;;5052101;28;19909;-76
2022/09/07 03:59:58;;;;;;;;;;;16.60;99.90;;;;;;5051978;28;19909;-77
2022/09/07 04:02:23;;;;;;;;;;;16.50;99.90;;;;;;5052896;28;19916;-76
2022/09/07 04:04:49;;;;;;;;;;;16.50;99.90;;;;;;5057336;28;19966;-76
2022/09/07 04:07:14;;;;;;;;;;;16.60;99.90;;;;;;5052192;28;20003;-76
2022/09/07 04:09:40;;;;;;;;;;;16.50;99.90;;;;;;5052076;28;20007;-76
2022/09/07 04:12:06;;;;;;;;;;;16.60;99.90;;;;;;5051993;28;19908;-76
2022/09/07 04:14:31;;;;;;;;;;;16.40;99.90;;;;;;5054836;28;19923;-76
2022/09/07 04:16:57;;;;;;;;;;;16.30;99.90;;;;;;5068193;28;20003;-76
2022/09/07 04:19:23;;;;;;;;;;;16.20;99.90;;;;;;5058349;28;19908;-76
2022/09/07 04:21:48;;;;;;;;;;;16.20;99.90;;;;;;5064908;28;19912;-77
2022/09/07 04:24:14;;;;;;;;;;;16.20;99.90;;;;;;5063977;28;19909;-76
2022/09/07 04:26:42;;;;;;;;;;;16.10;99.90;;;;;;5059295;28;19913;-76
2022/09/07 04:29:07;;;;;;;;;;;16.00;99.90;;;;;;5051913;28;20408;-76
2022/09/07 04:31:34;;;;;;;;;;;15.90;99.90;;;;;;5051144;28;19909;-76
2022/09/07 04:33:59;;;;;;;;;;;15.80;99.90;;;;;;5063210;28;19916;-75
2022/09/07 04:36:25;;;;;;;;;;;15.80;99.90;;;;;;5072735;28;19908;-75
2022/09/07 04:38:55;;;;;;;;;;;15.80;99.90;;;;;;5073386;28;19922;-77
2022/09/07 04:41:21;;;;;;;;;;;15.70;99.90;;;;;;5072751;28;19923;-76
2022/09/07 04:43:47;;;;;;;;;;;15.70;99.90;;;;;;5073412;28;20050;-76
2022/09/07 04:46:20;;;;;;;;;;;15.60;99.90;;;;;;5057140;28;19956;-75
2022/09/07 04:48:47;;;;;;;;;;;15.70;99.90;;;;;;5053297;28;19909;-75
2022/09/07 04:51:13;;;;;;;;;;;15.70;99.90;;;;;;5053732;28;19909;-75
2022/09/07 04:53:39;;;;;;;;;;;15.80;99.90;;;;;;5053585;28;20270;-75
2022/09/07 04:56:04;;;;;;;;;;;15.80;99.90;;;;;;5053646;28;19909;-76
2022/09/07 04:58:30;;;;;;;;;;;15.80;99.90;;;;;;5052434;28;19936;-76
2022/09/07 05:01:03;;;;;;;;;;;15.80;99.90;;;;;;5050854;28;19915;-76
2022/09/07 05:03:29;;;;;;;;;;;15.80;99.90;;;;;;5051495;28;20425;-76
2022/09/07 05:05:55;;;;;;;;;;;15.80;99.90;;;;;;5051999;28;19963;-76
2022/09/07 05:08:20;;;;;;;;;;;15.80;99.90;;;;;;5051898;28;20370;-76
2022/09/07 05:10:49;;;;;;;;;;;15.80;99.90;;;;;;5051942;28;19916;-76
2022/09/07 05:13:15;;;;;;;;;;;15.90;99.90;;;;;;5051753;28;19913;-75
2022/09/07 05:15:40;;;;;;;;;;;15.90;99.90;;;;;;5061661;28;19916;-76
2022/09/07 05:18:06;;;;;;;;;;;16.00;99.90;;;;;;5059062;28;20273;-76
2022/09/07 05:20:31;;;;;;;;;;;16.10;99.90;;;;;;5070926;28;20269;-78
2022/09/07 05:22:58;;;;;;;;;;;16.20;99.90;;;;;;5060519;28;19915;-76
2022/09/07 05:25:27;;;;;;;;;;;16.30;99.90;;;;;;5050267;28;19978;-75
2022/09/07 05:27:53;;;;;;;;;;;16.40;99.90;;;;;;5052272;28;19916;-75
2022/09/07 05:30:19;;;;;;;;;;;16.60;99.90;;;;;;5051834;28;19909;-76
2022/09/07 05:32:45;;;;;;;;;;;16.60;99.90;;;;;;5051762;28;19987;-75
2022/09/07 05:35:11;;;;;;;;;;;16.70;99.90;;;;;;5050510;28;19916;-75
2022/09/07 05:37:36;;;;;;;;;;;16.70;99.90;;;;;;5055082;28;20386;-75
2022/09/07 05:40:02;;;;;;;;;;;16.80;99.90;;;;;;5054758;28;19963;-78
2022/09/07 05:42:28;;;;;;;;;;;16.80;99.90;;;;;;5051403;28;20332;-75
2022/09/07 05:44:53;;;;;;;;;;;16.80;99.90;;;;;;5061793;28;19964;-75
2022/09/07 05:47:19;;;;;;;;;;;16.90;99.90;;;;;;5063959;28;19912;-75
2022/09/07 05:49:44;;;;;;;;;;;17.00;99.90;;;;;;5058160;28;19920;-76
2022/09/07 05:52:10;;;;;;;;;;;16.90;99.90;;;;;;5054751;28;19956;-74
2022/09/07 05:54:35;;;;;;;;;;;16.80;99.90;;;;;;5054526;28;19952;-74
2022/09/07 05:57:02;;;;;;;;;;;16.80;99.90;;;;;;5054882;28;20007;-75
2022/09/07 05:59:27;;;;;;;;;;;16.90;99.90;;;;;;5056025;28;19947;-74
2022/09/07 06:01:53;;;;;;;;;;;16.90;99.90;;;;;;5060423;28;20294;-74
2022/09/07 06:04:18;;;;;;;;;;;17.20;99.90;;;;;;5057639;28;19921;-74
2022/09/07 06:06:44;;;;;;;;;;;17.30;99.90;;;;;;5064118;28;19908;-75
2022/09/07 06:09:11;;;;;;;;;;;17.50;99.90;;;;;;5064382;28;19913;-74
2022/09/07 06:11:37;;;;;;;;;;;17.60;99.90;;;;;;5056902;28;19916;-74
2022/09/07 06:14:02;;;;;;;;;;;17.80;99.90;;;;;;5063786;28;20068;-74
2022/09/07 06:16:28;;;;;;;;;;;18.10;99.90;;;;;;5058533;28;19931;-74
2022/09/07 06:18:53;;;;;;;;;;;18.50;99.90;;;;;;5053790;28;19952;-75
2022/09/07 06:21:20;;;;;;;;;;;18.70;99.90;;;;;;5053072;28;19963;-77
2022/09/07 06:23:46;;;;;;;;;;;19.00;99.90;;;;;;5060847;28;19929;-74
2022/09/07 06:26:12;;;;;;;;;;;19.20;99.90;;;;;;5057058;28;20000;-74
2022/09/07 06:28:39;;;;;;;;;;;19.40;99.90;;;;;;5065665;28;20003;-75
2022/09/07 06:31:08;;;;;;;;;;;19.50;99.90;;;;;;5067302;28;19908;-74
2022/09/07 06:33:34;;;;;;;;;;;19.60;99.90;;;;;;5055838;28;19913;-74
2022/09/07 06:36:04;;;;;;;;;;;19.60;99.90;;;;;;5062905;28;20334;-74
2022/09/07 06:38:31;;;;;;;;;;;19.70;99.90;;;;;;5054095;28;19956;-74
2022/09/07 06:41:00;;;;;;;;;;;19.80;99.90;;;;;;5053529;28;19912;-74
2022/09/07 06:43:26;;;;;;;;;;;19.70;99.90;;;;;;5053902;28;20004;-74
2022/09/07 06:45:53;;;;;;;;;;;19.80;99.90;;;;;;5070249;28;19987;-78
2022/09/07 06:48:18;;;;;;;;;;;19.80;99.90;;;;;;5059704;28;20037;-74
2022/09/07 06:50:44;;;;;;;;;;;19.80;99.90;;;;;;5070829;28;20003;-76
2022/09/07 06:53:09;;;;;;;;;;;19.70;99.90;;;;;;5059186;28;19917;-74
2022/09/07 06:55:42;;;;;;;;;;;19.60;99.90;;;;;;5057292;28;19909;-74
2022/09/07 06:58:07;;;;;;;;;;;19.40;99.90;;;;;;5053339;28;19916;-75
2022/09/07 07:00:33;;;;;;;;;;;19.20;99.90;;;;;;5053173;28;19909;-75
2022/09/07 07:02:58;;;;;;;;;;;19.10;99.90;;;;;;5052993;28;20381;-75
2022/09/07 07:05:24;;;;;;;;;;;19.20;99.90;;;;;;5052896;28;19920;-75
2022/09/07 07:07:49;;;;;;;;;;;19.30;99.90;;;;;;5052784;28;20007;-75
2022/09/07 07:10:15;;;;;;;;;;;19.40;99.90;;;;;;5051415;28;20343;-75
2022/09/07 07:12:40;;;;;;;;;;;19.40;99.90;;;;;;5052795;28;19909;-74
2022/09/07 07:15:07;;;;;;;;;;;19.60;99.90;;;;;;5056822;28;19931;-75
2022/09/07 07:17:33;;;;;;;;;;;19.80;99.90;;;;;;5052694;28;19909;-75
2022/09/07 07:19:58;;;;;;;;;;;19.90;99.90;;;;;;5052679;28;19913;-75
2022/09/07 07:22:24;;;;;;;;;;;19.90;99.90;;;;;;5052427;28;20285;-75
2022/09/07 07:24:49;;;;;;;;;;;20.10;99.90;;;;;;5052908;28;19956;-75
2022/09/07 07:27:15;;;;;;;;;;;20.30;99.90;;;;;;5053819;28;19913;-75
2022/09/07 07:29:40;;;;;;;;;;;20.40;99.90;;;;;;5069870;28;19908;-74
2022/09/07 07:32:06;;;;;;;;;;;20.70;99.90;;;;;;5059357;28;19970;-75
2022/09/07 07:34:31;;;;;;;;;;;21.80;99.90;;;;;;5052471;28;19920;-76
2022/09/07 07:36:57;;;;;;;;;;;23.20;99.90;;;;;;5058390;28;19909;-75
2022/09/07 07:39:22;;;;;;;;;;;24.30;99.90;;;;;;5050734;28;19909;-75
2022/09/07 07:41:48;;;;;;;;;;;24.70;99.90;;;;;;5048188;28;20270;-75
2022/09/07 07:44:13;;;;;;;;;;;24.60;99.90;;;;;;5057505;28;19909;-75
2022/09/07 07:46:39;;;;;;;;;;;24.90;99.90;;;;;;5058159;28;19920;-74
2022/09/07 07:49:05;;;;;;;;;;;25.80;99.90;;;;;;5056538;28;19920;-73
2022/09/07 07:51:30;;;;;;;;;;;26.30;98.00;;;;;;5051914;28;19908;-74
2022/09/07 07:53:56;;;;;;;;;;;26.30;98.10;;;;;;5050515;28;19912;-73
2022/09/07 07:56:21;;;;;;;;;;;26.30;96.80;;;;;;5056886;28;19999;-73
2022/09/07 07:58:47;;;;;;;;;;;26.70;96.30;;;;;;5050752;28;19909;-73
2022/09/07 08:01:14;;;;;;;;;;;26.70;94.50;;;;;;5055683;28;19908;-73
2022/09/07 08:03:40;;;;;;;;;;;26.40;95.10;;;;;;5061060;28;19913;-74
2022/09/07 08:06:06;;;;;;;;;;;26.00;96.00;;;;;;5051288;28;20282;-73
2022/09/07 08:08:33;;;;;;;;;;;26.60;94.70;;;;;;5056514;28;20273;-73
2022/09/07 08:11:00;;;;;;;;;;;26.80;95.10;;;;;;5052394;28;19916;-74
2022/09/07 08:13:28;;;;;;;;;;;27.60;92.60;;;;;;5052762;28;19916;-73
2022/09/07 08:15:58;;;;;;;;;;;27.70;91.80;;;;;;5063188;28;19915;-73
2022/09/07 08:18:24;;;;;;;;;;;28.20;92.00;;;;;;5052121;28;20301;-74
2022/09/07 08:20:49;;;;;;;;;;;28.70;90.00;;;;;;5051873;28;19909;-74
2022/09/07 08:23:15;;;;;;;;;;;28.80;89.50;;;;;;5051347;28;19909;-74
2022/09/07 08:25:53;;;;;;;;;;;29.70;85.90;;;;;;5051604;28;20333;-74
2022/09/07 08:28:19;;;;;;;;;;;29.40;84.60;;;;;;5061509;28;20398;-74
2022/09/07 08:30:45;;;;;;;;;;;29.50;86.30;;;;;;5056265;28;19916;-74
2022/09/07 08:33:10;;;;;;;;;;;29.40;84.10;;;;;;5051127;28;19916;-74
2022/09/07 08:35:36;;;;;;;;;;;30.00;83.80;;;;;;5058159;28;20286;-74
2022/09/07 08:38:01;;;;;;;;;;;30.20;80.00;;;;;;5051895;28;19999;-75
2022/09/07 08:40:27;;;;;;;;;;;30.40;78.90;;;;;;5051160;28;19913;-75
2022/09/07 08:42:59;;;;;;;;;;;30.30;79.50;;;;;;5059477;28;20316;-74
2022/09/07 08:45:35;;;;;;;;;;;30.90;78.50;;;;;;5053093;28;19920;-74
2022/09/07 08:48:03;;;;;;;;;;;31.00;76.20;;;;;;5061411;28;19974;-74
2022/09/07 08:50:35;;;;;;;;;;;31.20;75.40;;;;;;5051181;28;19999;-74
2022/09/07 08:53:08;;;;;;;;;;;31.20;74.70;;;;;;5051127;28;19912;-75
2022/09/07 08:55:36;;;;;;;;;;;31.70;73.50;;;;;;5051001;28;19917;-73
2022/09/07 08:58:07;;;;;;;;;;;32.10;71.40;;;;;;5051301;28;19913;-74
2022/09/07 09:00:34;;;;;;;;;;;32.50;70.50;;;;;;5058529;28;20259;-74
2022/09/07 09:03:00;;;;;;;;;;;32.30;68.50;;;;;;5051163;28;19956;-75
2022/09/07 09:05:35;;;;;;;;;;;31.70;69.90;;;;;;5051038;28;20443;-75
2022/09/07 09:08:09;;;;;;;;;;;31.70;70.60;;;;;;5051155;28;19920;-75
2022/09/07 09:10:41;;;;;;;;;;;32.00;68.30;;;;;;5050974;28;19973;-75
2022/09/07 09:13:22;;;;;;;;;;;32.20;65.70;;;;;;5055377;28;19919;-75
2022/09/07 09:15:51;;;;;;;;;;;32.70;67.50;;;;;;5058070;28;19913;-75
2022/09/07 09:18:30;;;;;;;;;;;33.10;65.30;;;;;;5052562;28;19916;-75
2022/09/07 09:20:56;;;;;;;;;;;32.40;63.80;;;;;;5054938;28;19912;-74
2022/09/07 09:23:25;;;;;;;;;;;33.20;64.40;;;;;;5054653;28;19909;-75
2022/09/07 09:25:52;;;;;;;;;;;33.60;63.50;;;;;;5054788;28;19934;-75
2022/09/07 09:28:18;;;;;;;;;;;34.00;62.90;;;;;;5062773;28;19908;-75
2022/09/07 09:30:43;;;;;;;;;;;34.60;63.00;;;;;;5057326;28;19915;-74
2022/09/07 09:33:12;;;;;;;;;;;34.30;59.80;;;;;;5054146;28;20333;-75
2022/09/07 09:35:38;;;;;;;;;;;34.20;60.00;;;;;;5054507;28;19920;-74
2022/09/07 09:38:03;;;;;;;;;;;33.20;63.80;;;;;;5054780;28;19912;-75
2022/09/07 09:40:30;;;;;;;;;;;33.80;62.70;;;;;;5054493;28;19963;-75
2022/09/07 09:43:00;;;;;;;;;;;33.30;60.70;;;;;;5056856;28;19909;-75
2022/09/07 09:45:27;;;;;;;;;;;32.70;65.00;;;;;;5062579;28;20289;-75
2022/09/07 09:47:53;;;;;;;;;;;33.20;62.40;;;;;;5064080;28;19963;-75
2022/09/07 09:50:27;;;;;;;;;;;34.40;60.30;;;;;;5054399;28;19913;-75
2022/09/07 09:52:54;;;;;;;;;;;34.00;59.90;;;;;;5054438;28;19915;-75
2022/09/07 09:55:24;;;;;;;;;;;34.10;59.80;;;;;;5054089;28;20278;-76
2022/09/07 09:57:52;;;;;;;;;;;34.50;59.80;;;;;;5054308;28;19913;-75
2022/09/07 10:00:19;;;;;;;;;;;34.80;60.00;;;;;;5052649;28;19909;-75
2022/09/07 10:02:59;;;;;;;;;;;35.60;58.00;;;;;;5055273;28;19916;-75
2022/09/07 10:05:35;;;;;;;;;;;36.20;55.00;;;;;;5062030;28;20354;-75
2022/09/07 10:08:01;;;;;;;;;;;36.20;55.50;;;;;;5054137;28;19909;-75
2022/09/07 10:10:28;;;;;;;;;;;35.70;56.20;;;;;;5053693;28;20389;-74
2022/09/07 10:12:54;;;;;;;;;;;35.70;55.70;;;;;;5054678;28;20320;-75
2022/09/07 10:15:25;;;;;;;;;;;35.20;55.60;;;;;;5056889;28;19913;-75
2022/09/07 10:17:50;;;;;;;;;;;32.00;61.10;;;;;;5065003;28;19920;-75
2022/09/07 10:20:16;;;;;;;;;;;32.70;62.40;;;;;;5053723;28;19908;-75
2022/09/07 10:22:50;;;;;;;;;;;35.20;56.30;;;;;;5053680;28;20388;-75
2022/09/07 10:25:31;;;;;;;;;;;35.40;56.00;;;;;;5053319;28;19915;-75
2022/09/07 10:28:09;;;;;;;;;;;36.40;54.10;;;;;;5061650;28;19954;-75
2022/09/07 10:30:55;;;;;;;;;;;36.30;54.00;;;;;;5058243;28;19915;-74
2022/09/07 10:33:39;;;;;;;;;;;36.30;54.50;;;;;;5053302;28;20297;-75
2022/09/07 10:36:05;;;;;;;;;;;35.00;55.30;;;;;;5066855;28;19971;-75
2022/09/07 10:38:33;;;;;;;;;;;35.50;54.40;;;;;;5074673;28;20313;-78
2022/09/07 10:41:03;;;;;;;;;;;34.30;54.80;;;;;;5073378;28;20343;-73
2022/09/07 10:43:31;;;;;;;;;;;30.50;62.00;;;;;;5074593;28;19908;-73
2022/09/07 10:46:15;;;;;;;;;;;28.90;67.40;;;;;;5061455;28;19917;-73
2022/09/07 10:48:56;;;;;;;;;;;28.40;72.30;;;;;;5056496;28;20298;-74
2022/09/07 10:51:28;;;;;;;;;;;27.60;72.70;;;;;;5053083;28;19915;-74
2022/09/07 10:54:12;;;;;;;;;;;26.70;75.10;;;;;;5053090;28;19920;-74
2022/09/07 10:56:42;;;;;;;;;;;29.40;71.10;;;;;;5059197;28;19909;-74
2022/09/07 10:59:24;;;;;;;;;;;33.20;59.80;;;;;;5053228;28;19909;-74
2022/09/07 11:02:10;;;;;;;;;;;35.70;55.10;;;;;;5052809;28;19913;-73
2022/09/07 11:04:43;;;;;;;;;;;35.60;53.90;;;;;;5055056;28;20358;-74
2022/09/07 11:07:20;;;;;;;;;;;31.50;58.30;;;;;;5065292;28;19931;-74
2022/09/07 11:10:13;;;;;;;;;;;29.00;63.50;;;;;;5052938;28;20039;-74
2022/09/07 11:12:40;;;;;;;;;;;28.40;68.60;;;;;;5052776;28;20417;-74
2022/09/07 11:15:11;;;;;;;;;;;32.70;55.20;;;;;;5057970;28;19913;-74
2022/09/07 11:17:44;;;;;;;;;;;35.60;48.20;;;;;;5057970;28;19922;-74
2022/09/07 11:20:25;;;;;;;;;;;36.50;43.30;;;;;;5052684;28;19913;-74
2022/09/07 11:23:11;;;;;;;;;;;36.00;45.00;;;;;;5066203;28;19987;-73
2022/09/07 11:25:42;;;;;;;;;;;35.80;44.60;;;;;;5052969;28;19908;-73
2022/09/07 11:28:22;;;;;;;;;;;36.00;45.40;;;;;;5055606;28;20170;-74
2022/09/07 11:30:57;;;;;;;;;;;36.40;43.50;;;;;;5060842;28;19954;-74
2022/09/07 11:33:22;;;;;;;;;;;36.70;43.90;;;;;;5052083;28;20213;-74
2022/09/07 11:36:03;;;;;;;;;;;37.80;43.70;;;;;;5052383;28;19917;-73
2022/09/07 11:38:31;;;;;;;;;;;38.20;44.10;;;;;;5052448;28;19909;-73
2022/09/07 11:41:00;;;;;;;;;;;33.00;50.70;;;;;;5052047;28;19909;-73
2022/09/07 11:43:30;;;;;;;;;;;32.80;52.50;;;;;;5054393;28;19916;-73
2022/09/07 11:46:03;;;;;;;;;;;35.80;46.80;;;;;;5056632;28;19913;-73
2022/09/07 11:48:31;;;;;;;;;;;36.30;44.80;;;;;;5067910;28;19916;-72
2022/09/07 11:51:07;;;;;;;;;;;36.00;44.00;;;;;;5052257;28;20292;-74
2022/09/07 11:53:35;;;;;;;;;;;35.80;44.40;;;;;;5051606;28;19919;-74
2022/09/07 11:56:06;;;;;;;;;;;36.90;43.70;;;;;;5051941;28;20389;-74
2022/09/07 11:59:07;;;;;;;;;;;37.90;41.00;;;;;;5052043;28;20366;-74
2022/09/07 12:01:35;;;;;;;;;;;37.90;40.90;;;;;;5054254;28;20031;-74
2022/09/07 12:04:08;;;;;;;;;;;37.30;40.20;;;;;;5058008;28;19916;-76
2022/09/07 12:06:52;;;;;;;;;;;34.90;43.10;;;;;;5050614;28;19917;-76
2022/09/07 12:09:23;;;;;;;;;;;31.30;48.90;;;;;;5071133;28;19909;-75
2022/09/07 12:11:49;;;;;;;;;;;29.30;51.40;;;;;;5070950;28;20292;-76
2022/09/07 12:14:23;;;;;;;;;;;28.50;54.70;;;;;;5075516;28;19999;-76
2022/09/07 12:17:07;;;;;;;;;;;28.50;54.20;;;;;;5057333;28;19931;-76
2022/09/07 12:19:33;;;;;;;;;;;27.60;55.80;;;;;;5050166;28;19932;-74
2022/09/07 12:21:59;;;;;;;;;;;27.60;57.20;;;;;;5051891;28;20370;-76
2022/09/07 12:24:33;;;;;;;;;;;27.60;57.30;;;;;;5052242;28;19912;-75
2022/09/07 12:27:00;;;;;;;;;;;27.50;57.40;;;;;;5052125;28;20369;-76
2022/09/07 12:29:27;;;;;;;;;;;27.80;57.80;;;;;;5052136;28;19909;-75
2022/09/07 12:31:56;;;;;;;;;;;27.50;56.30;;;;;;5051685;28;19909;-75
2022/09/07 12:34:31;;;;;;;;;;;27.50;55.50;;;;;;5051477;28;19982;-75
2022/09/07 12:37:00;;;;;;;;;;;27.20;56.60;;;;;;5050633;28;19909;-75
2022/09/07 12:39:27;;;;;;;;;;;27.30;57.40;;;;;;5051950;28;19975;-75
2022/09/07 12:42:13;;;;;;;;;;;28.00;58.10;;;;;;5050458;28;19913;-75
2022/09/07 12:44:39;;;;;;;;;;;28.40;56.50;;;;;;5055208;28;19916;-75
2022/09/07 12:47:10;;;;;;;;;;;27.90;59.00;;;;;;5061757;28;19913;-75
2022/09/07 12:49:54;;;;;;;;;;;27.60;58.30;;;;;;5051875;28;19909;-75
2022/09/07 12:52:20;;;;;;;;;;;27.40;60.30;;;;;;5051407;28;19966;-76
2022/09/07 12:54:59;;;;;;;;;;;27.30;60.80;;;;;;5061379;28;19913;-76
2022/09/07 12:57:45;;;;;;;;;;;27.20;62.20;;;;;;5055723;28;20187;-76
2022/09/07 13:00:10;;;;;;;;;;;27.10;60.60;;;;;;5054715;28;19913;-76
2022/09/07 13:02:59;;;;;;;;;;;27.50;60.60;;;;;;5054369;28;19915;-76
2022/09/07 13:05:40;;;;;;;;;;;27.60;62.30;;;;;;5055524;28;19916;-75
2022/09/07 13:08:25;;;;;;;;;;;27.40;62.70;;;;;;5054380;28;19999;-76
2022/09/07 13:10:50;;;;;;;;;;;27.70;63.80;;;;;;5070587;28;19921;-78
2022/09/07 13:13:22;;;;;;;;;;;27.60;60.00;;;;;;5074858;28;20091;-76
2022/09/07 13:15:49;;;;;;;;;;;27.00;59.30;;;;;;5063394;28;19909;-76
2022/09/07 13:18:24;;;;;;;;;;;26.60;61.40;;;;;;5055387;28;19967;-75
2022/09/07 13:21:05;;;;;;;;;;;26.70;62.50;;;;;;5061264;28;20393;-76
2022/09/07 13:23:31;;;;;;;;;;;26.80;62.50;;;;;;5055041;28;19920;-76
2022/09/07 13:25:58;;;;;;;;;;;26.70;62.00;;;;;;5053979;28;19909;-75
2022/09/07 13:28:32;;;;;;;;;;;27.00;61.90;;;;;;5055405;28;19909;-76
2022/09/07 13:31:04;;;;;;;;;;;27.10;60.70;;;;;;5055200;28;19948;-75
2022/09/07 13:33:33;;;;;;;;;;;27.40;60.00;;;;;;5054824;28;19917;-75
2022/09/07 13:36:02;;;;;;;;;;;27.50;62.20;;;;;;5055282;28;20255;-76
2022/09/07 13:38:29;;;;;;;;;;;27.60;59.00;;;;;;5055071;28;19952;-75
2022/09/07 13:41:15;;;;;;;;;;;27.60;58.80;;;;;;5054535;28;19916;-76
2022/09/07 13:43:45;;;;;;;;;;;27.50;61.10;;;;;;5060427;28;19913;-76
2022/09/07 13:46:29;;;;;;;;;;;27.60;60.00;;;;;;5069931;28;19938;-75
2022/09/07 13:49:00;;;;;;;;;;;27.70;59.90;;;;;;5054884;28;19909;-76
2022/09/07 13:51:38;;;;;;;;;;;27.60;60.00;;;;;;5054639;28;19963;-76
2022/09/07 13:54:18;;;;;;;;;;;27.80;58.00;;;;;;5054681;28;19920;-76
2022/09/07 13:56:50;;;;;;;;;;;27.80;55.60;;;;;;5069005;28;20292;-76
2022/09/07 13:59:24;;;;;;;;;;;27.90;55.30;;;;;;5058894;28;19909;-76
2022/09/07 14:01:50;;;;;;;;;;;27.20;57.00;;;;;;5054412;28;20003;-76
2022/09/07 14:04:41;;;;;;;;;;;27.00;57.30;;;;;;5054339;28;19967;-75
2022/09/07 14:07:19;;;;;;;;;;;27.00;55.50;;;;;;5054917;28;19932;-76
2022/09/07 14:09:47;;;;;;;;;;;26.90;60.10;;;;;;5067893;28;19909;-76
2022/09/07 14:12:14;;;;;;;;;;;26.70;63.20;;;;;;5073195;28;19958;-75
2022/09/07 14:14:39;;;;;;;;;;;26.60;59.40;;;;;;5063784;28;20290;-75
2022/09/07 14:17:06;;;;;;;;;;;26.70;60.80;;;;;;5065501;28;19913;-75
2022/09/07 14:19:44;;;;;;;;;;;27.00;60.40;;;;;;5073586;28;19962;-75
2022/09/07 14:22:17;;;;;;;;;;;26.90;63.20;;;;;;5073359;28;19951;-76
2022/09/07 14:24:47;;;;;;;;;;;26.90;58.10;;;;;;5072826;28;20177;-76
2022/09/07 14:27:18;;;;;;;;;;;26.90;64.00;;;;;;5073264;28;20007;-76
2022/09/07 14:29:44;;;;;;;;;;;27.00;61.00;;;;;;5073136;28;19955;-76